createdAt,value
2023-10-01T00:01:54.533Z,14.68
2023-10-01T00:04:21.740Z,14.85
2023-10-01T00:06:48.803Z,14.98
2023-10-01T00:09:20.984Z,14.90
2023-10-01T00:11:48.091Z,13.80
2023-10-01T00:14:28.234Z,14.00
2023-10-01T00:17:00.442Z,15.15
2023-10-01T00:19:27.478Z,14.40
2023-10-01T00:21:59.082Z,13.80
2023-10-01T00:26:53.318Z,13.77
2023-10-01T00:29:23.187Z,13.63
2023-10-01T00:31:51.071Z,13.02
2023-10-01T00:34:23.528Z,13.88
2023-10-01T00:36:50.530Z,13.25
2023-10-01T00:39:25.110Z,12.63
2023-10-01T00:41:57.394Z,13.02
2023-10-01T00:44:25.689Z,13.73
2023-10-01T00:46:55.278Z,12.98
2023-10-01T00:49:24.368Z,13.52
2023-10-01T00:51:52.330Z,12.20
2023-10-01T00:54:29.390Z,13.35
2023-10-01T00:57:01.953Z,11.68
2023-10-01T00:59:29.009Z,13.00
2023-10-01T01:01:56.071Z,12.07
2023-10-01T01:04:24.520Z,13.27
2023-10-01T01:06:51.696Z,12.68
2023-10-01T01:09:21.282Z,12.63
2023-10-01T01:11:48.965Z,14.35
2023-10-01T01:14:17.336Z,13.45
2023-10-01T01:16:46.694Z,12.77
2023-10-01T01:19:13.692Z,12.55
2023-10-01T01:21:43.558Z,12.75
2023-10-01T01:24:11.082Z,12.13
2023-10-01T01:26:44.528Z,12.73
2023-10-01T01:29:30.697Z,11.70
2023-10-01T01:32:25.270Z,12.10
2023-10-01T01:35:01.269Z,11.02
2023-10-01T01:37:53.949Z,11.43
2023-10-01T01:40:33.541Z,10.90
2023-10-01T01:43:17.228Z,11.13
2023-10-01T01:45:49.361Z,11.15
2023-10-01T01:48:45.462Z,11.45
2023-10-01T01:51:20.345Z,11.10
2023-10-01T01:53:51.777Z,11.75
2023-10-01T01:56:20.210Z,11.32
2023-10-01T01:58:48.761Z,12.30
2023-10-01T02:01:15.617Z,11.85
2023-10-01T02:04:09.078Z,11.95
2023-10-01T02:06:36.255Z,11.82
2023-10-01T02:09:17.287Z,11.57
2023-10-01T02:11:44.619Z,11.88
2023-10-01T02:14:34.007Z,11.88
2023-10-01T02:17:24.265Z,11.07
2023-10-01T02:20:05.952Z,11.65
2023-10-01T02:22:41.029Z,11.55
2023-10-01T02:25:18.025Z,11.88
2023-10-01T02:28:11.861Z,11.18
2023-10-01T02:30:50.265Z,11.93
2023-10-01T02:33:16.940Z,11.30
2023-10-01T02:35:51.959Z,11.65
2023-10-01T02:38:45.410Z,10.85
2023-10-01T02:41:22.439Z,10.57
2023-10-01T02:43:55.184Z,11.50
2023-10-01T02:46:33.826Z,11.07
2023-10-01T02:49:12.117Z,10.95
2023-10-01T02:51:39.511Z,10.95
2023-10-01T02:54:16.893Z,10.95
2023-10-01T02:57:16.705Z,11.40
2023-10-01T03:00:05.427Z,11.05
2023-10-01T03:02:43.787Z,11.00
2023-10-01T03:05:28.421Z,10.68
2023-10-01T03:08:09.742Z,11.45
2023-10-01T03:10:52.365Z,11.02
2023-10-01T03:13:38.114Z,11.40
2023-10-01T03:16:29.367Z,10.98
2023-10-01T03:19:10.548Z,9.88
2023-10-01T03:22:04.115Z,10.52
2023-10-01T03:24:46.594Z,10.52
2023-10-01T03:27:39.635Z,11.32
2023-10-01T03:30:25.040Z,10.70
2023-10-01T03:33:02.521Z,10.07
2023-10-01T03:35:36.919Z,10.90
2023-10-01T03:38:15.793Z,10.68
2023-10-01T03:41:07.545Z,9.70
2023-10-01T03:43:36.302Z,10.48
2023-10-01T03:46:28.990Z,10.07
2023-10-01T03:49:25.872Z,9.20
2023-10-01T03:52:09.739Z,9.90
2023-10-01T03:54:55.988Z,9.52
2023-10-01T03:57:26.498Z,9.43
2023-10-01T03:59:58.846Z,9.43
2023-10-01T04:02:29.827Z,9.40
2023-10-01T04:05:00.078Z,9.88
2023-10-01T04:07:27.961Z,9.40
2023-10-01T04:09:55.953Z,9.40
2023-10-01T04:12:35.053Z,9.25
2023-10-01T04:15:05.927Z,8.60
2023-10-01T04:17:37.615Z,9.98
2023-10-01T04:20:14.852Z,8.55
2023-10-01T04:22:41.928Z,9.05
2023-10-01T04:25:17.323Z,9.02
2023-10-01T04:27:49.053Z,9.80
2023-10-01T04:30:28.955Z,9.40
2023-10-01T04:33:27.336Z,10.20
2023-10-01T04:36:09.165Z,9.25
2023-10-01T04:38:36.787Z,10.18
2023-10-01T04:41:08.886Z,8.95
2023-10-01T04:43:46.388Z,9.82
2023-10-01T04:46:13.330Z,8.00
2023-10-01T04:48:40.612Z,9.95
2023-10-01T04:51:09.195Z,8.32
2023-10-01T04:53:36.064Z,8.25
2023-10-01T04:56:08.482Z,8.18
2023-10-01T04:58:38.564Z,7.30
2023-10-01T05:01:12.554Z,7.65
2023-10-01T05:03:41.038Z,8.00
2023-10-01T05:06:22.157Z,9.05
2023-10-01T05:08:58.188Z,8.32
2023-10-01T05:11:33.415Z,8.45
2023-10-01T05:14:00.954Z,7.50
2023-10-01T05:16:28.077Z,7.45
2023-10-01T05:19:14.871Z,7.70
2023-10-01T05:21:49.401Z,7.85
2023-10-01T05:24:39.607Z,7.55
2023-10-01T05:27:19.583Z,8.13
2023-10-01T05:29:47.203Z,8.15
2023-10-01T05:32:14.824Z,9.25
2023-10-01T05:34:47.676Z,8.63
2023-10-01T05:37:26.767Z,7.82
2023-10-01T05:42:27.402Z,8.23
2023-10-01T05:44:56.282Z,7.70
2023-10-01T05:47:47.229Z,7.50
2023-10-01T05:50:15.837Z,8.20
2023-10-01T05:52:42.787Z,8.15
2023-10-01T05:55:20.982Z,8.52
2023-10-01T05:57:51.589Z,8.15
2023-10-01T06:00:29.686Z,9.00
2023-10-01T06:03:02.690Z,8.73
2023-10-01T06:05:44.230Z,7.82
2023-10-01T06:08:16.578Z,8.90
2023-10-01T06:11:06.641Z,7.97
2023-10-01T06:13:41.081Z,8.50
2023-10-01T06:16:17.699Z,7.88
2023-10-01T06:18:52.119Z,8.18
2023-10-01T06:21:29.646Z,8.65
2023-10-01T06:24:05.059Z,7.82
2023-10-01T06:26:43.819Z,8.25
2023-10-01T06:29:12.771Z,8.35
2023-10-01T06:31:51.977Z,7.90
2023-10-01T06:34:23.181Z,7.95
2023-10-01T06:36:52.850Z,8.00
2023-10-01T06:39:28.027Z,8.55
2023-10-01T06:42:17.323Z,7.18
2023-10-01T06:44:48.157Z,8.65
2023-10-01T06:47:18.318Z,7.95
2023-10-01T06:50:11.187Z,8.20
2023-10-01T06:52:43.716Z,8.27
2023-10-01T06:55:27.738Z,8.30
2023-10-01T06:58:02.074Z,8.83
2023-10-01T07:00:35.782Z,8.07
2023-10-01T07:03:21.545Z,8.40
2023-10-01T07:05:57.442Z,7.40
2023-10-01T07:08:39.027Z,7.38
2023-10-01T07:13:40.367Z,7.00
2023-10-01T07:16:09.370Z,7.63
2023-10-01T07:18:38.846Z,7.15
2023-10-01T07:21:10.609Z,7.32
2023-10-01T07:23:38.986Z,6.90
2023-10-01T07:26:13.716Z,6.90
2023-10-01T07:28:46.872Z,6.95
2023-10-01T07:31:16.932Z,8.10
2023-10-01T07:33:43.691Z,7.78
2023-10-01T07:36:12.706Z,7.80
2023-10-01T07:38:55.303Z,8.65
2023-10-01T07:41:28.599Z,9.05
2023-10-01T07:43:56.811Z,9.55
2023-10-01T07:46:35.602Z,11.75
2023-10-01T07:49:03.038Z,10.38
2023-10-01T07:51:39.732Z,11.70
2023-10-01T07:54:13.911Z,10.48
2023-10-01T07:56:49.631Z,9.90
2023-10-01T07:59:19.045Z,10.05
2023-10-01T08:01:47.376Z,9.57
2023-10-01T08:04:38.186Z,8.73
2023-10-01T08:07:18.247Z,8.88
2023-10-01T08:09:59.168Z,9.50
2023-10-01T08:12:32.117Z,10.48
2023-10-01T08:15:17.475Z,12.90
2023-10-01T08:17:46.398Z,13.88
2023-10-01T08:20:22.845Z,12.40
2023-10-01T08:23:11.910Z,11.85
2023-10-01T08:25:49.288Z,12.45
2023-10-01T08:28:23.561Z,11.23
2023-10-01T08:31:32.188Z,11.55
2023-10-01T08:34:22.001Z,11.00
2023-10-01T08:37:06.237Z,10.85
2023-10-01T08:39:49.913Z,10.45
2023-10-01T08:42:30.265Z,10.85
2023-10-01T08:45:11.044Z,10.38
2023-10-01T08:47:46.399Z,9.95
2023-10-01T08:50:29.295Z,10.70
2023-10-01T08:53:27.552Z,10.38
2023-10-01T08:55:56.530Z,10.18
2023-10-01T08:58:23.252Z,10.57
2023-10-01T09:00:54.480Z,10.50
2023-10-01T09:03:42.553Z,11.13
2023-10-01T09:06:26.346Z,10.57
2023-10-01T09:08:57.389Z,11.38
2023-10-01T09:11:51.006Z,11.40
2023-10-01T09:14:21.732Z,13.73
2023-10-01T09:17:02.280Z,12.27
2023-10-01T09:19:52.009Z,12.40
2023-10-01T09:22:32.017Z,13.55
2023-10-01T09:25:20.427Z,13.65
2023-10-01T09:28:21.083Z,13.88
2023-10-01T09:31:21.205Z,13.10
2023-10-01T09:33:49.512Z,11.80
2023-10-01T09:36:48.881Z,11.65
2023-10-01T09:39:25.789Z,11.38
2023-10-01T09:41:56.849Z,11.73
2023-10-01T09:44:25.454Z,12.70
2023-10-01T09:47:13.158Z,11.73
2023-10-01T09:49:59.562Z,11.75
2023-10-01T09:53:01.071Z,12.93
2023-10-01T09:55:40.545Z,11.57
2023-10-01T09:58:11.570Z,10.98
2023-10-01T10:00:42.041Z,11.13
2023-10-01T10:03:13.808Z,10.57
2023-10-01T10:05:42.020Z,11.88
2023-10-01T10:08:30.326Z,10.27
2023-10-01T10:11:08.776Z,10.18
2023-10-01T10:13:40.598Z,10.90
2023-10-01T10:16:38.741Z,9.50
2023-10-01T10:19:22.687Z,9.85
2023-10-01T10:22:01.580Z,10.20
2023-10-01T10:24:56.407Z,10.18
2023-10-01T10:27:26.492Z,10.85
2023-10-01T10:30:16.807Z,11.38
2023-10-01T10:33:15.803Z,11.27
2023-10-01T10:35:54.464Z,10.18
2023-10-01T10:38:54.200Z,11.27
2023-10-01T10:41:26.911Z,12.20
2023-10-01T10:44:17.188Z,11.40
2023-10-01T10:47:13.485Z,10.77
2023-10-01T10:50:05.845Z,10.40
2023-10-01T10:52:46.566Z,10.05
2023-10-01T10:55:22.361Z,9.18
2023-10-01T10:57:53.147Z,9.73
2023-10-01T11:00:29.407Z,9.63
2023-10-01T11:02:58.767Z,9.88
2023-10-01T11:05:55.730Z,11.05
2023-10-01T11:08:29.304Z,9.13
2023-10-01T11:10:56.701Z,9.95
2023-10-01T11:13:51.763Z,8.45
2023-10-01T11:16:18.856Z,9.57
2023-10-01T11:18:46.241Z,9.93
2023-10-01T11:21:33.390Z,9.25
2023-10-01T11:24:02.199Z,9.82
2023-10-01T11:26:28.891Z,10.00
2023-10-01T11:29:02.482Z,10.23
2023-10-01T11:31:33.112Z,9.23
2023-10-01T11:34:23.287Z,10.50
2023-10-01T11:36:58.197Z,9.90
2023-10-01T11:39:39.669Z,9.50
2023-10-01T11:42:20.644Z,9.20
2023-10-01T11:44:57.747Z,10.10
2023-10-01T11:47:35.653Z,10.27
2023-10-01T11:50:11.754Z,10.45
2023-10-01T11:52:44.800Z,9.93
2023-10-01T11:55:25.690Z,9.45
2023-10-01T11:57:55.293Z,9.02
2023-10-01T12:00:44.618Z,9.80
2023-10-01T12:03:28.129Z,8.98
2023-10-01T12:05:57.930Z,8.55
2023-10-01T12:08:40.638Z,9.07
2023-10-01T12:11:31.899Z,9.60
2023-10-01T12:14:07.790Z,9.55
2023-10-01T12:16:34.978Z,9.50
2023-10-01T12:19:22.079Z,8.80
2023-10-01T12:21:49.991Z,9.48
2023-10-01T12:24:19.424Z,9.57
2023-10-01T12:26:49.726Z,9.45
2023-10-01T12:29:22.245Z,10.18
2023-10-01T12:32:07.114Z,10.90
2023-10-01T12:34:37.005Z,10.52
2023-10-01T12:37:36.219Z,9.27
2023-10-01T12:40:21.051Z,9.18
2023-10-01T12:42:53.959Z,10.13
2023-10-01T12:45:20.929Z,9.68
2023-10-01T12:48:13.509Z,9.57
2023-10-01T12:51:01.214Z,8.70
2023-10-01T12:53:28.767Z,7.93
2023-10-01T12:55:55.538Z,8.07
2023-10-01T12:58:38.514Z,8.77
2023-10-01T13:01:07.453Z,9.48
2023-10-01T13:03:45.625Z,8.63
2023-10-01T13:06:14.364Z,8.88
2023-10-01T13:08:45.697Z,8.90
2023-10-01T13:11:40.117Z,8.82
2023-10-01T13:14:27.265Z,9.32
2023-10-01T13:17:05.456Z,8.90
2023-10-01T13:19:36.139Z,9.60
2023-10-01T13:22:05.668Z,8.77
2023-10-01T13:24:34.111Z,10.55
2023-10-01T13:27:17.137Z,9.32
2023-10-01T13:29:53.340Z,9.55
2023-10-01T13:32:35.923Z,10.30
2023-10-01T13:35:28.831Z,9.13
2023-10-01T13:38:16.469Z,9.82
2023-10-01T13:41:03.938Z,8.90
2023-10-01T13:43:49.829Z,9.05
2023-10-01T13:46:38.664Z,9.98
2023-10-01T13:49:26.008Z,8.98
2023-10-01T13:52:11.746Z,9.27
2023-10-01T13:55:04.591Z,9.80
2023-10-01T13:57:50.395Z,10.88
2023-10-01T14:00:39.037Z,8.60
2023-10-01T14:03:49.435Z,8.63
2023-10-01T14:06:37.661Z,10.05
2023-10-01T14:09:10.806Z,8.80
2023-10-01T14:11:42.824Z,9.25
2023-10-01T14:14:10.022Z,9.68
2023-10-01T14:16:36.801Z,9.48
2023-10-01T14:19:19.496Z,8.57
2023-10-01T14:21:53.400Z,9.20
2023-10-01T14:24:24.750Z,8.90
2023-10-01T14:26:53.439Z,8.30
2023-10-01T14:29:26.027Z,10.07
2023-10-01T14:31:53.358Z,10.32
2023-10-01T14:34:24.166Z,9.48
2023-10-01T14:37:01.492Z,9.45
2023-10-01T14:39:38.414Z,8.43
2023-10-01T14:42:05.767Z,9.23
2023-10-01T14:44:44.209Z,8.93
2023-10-01T14:47:19.328Z,9.13
2023-10-01T14:49:48.931Z,10.57
2023-10-01T14:52:24.455Z,9.05
2023-10-01T14:55:00.160Z,9.55
2023-10-01T14:57:26.889Z,9.60
2023-10-01T14:59:57.427Z,9.45
2023-10-01T15:02:41.487Z,10.20
2023-10-01T15:05:18.466Z,8.95
2023-10-01T15:07:51.955Z,8.88
2023-10-01T15:10:23.460Z,9.82
2023-10-01T15:13:05.139Z,9.45
2023-10-01T15:16:00.778Z,10.15
2023-10-01T15:18:41.952Z,9.13
2023-10-01T15:21:25.682Z,10.35
2023-10-01T15:24:07.124Z,9.70
2023-10-01T15:29:21.458Z,9.63
2023-10-01T15:31:56.624Z,10.13
2023-10-01T15:34:27.343Z,10.13
2023-10-01T15:37:03.851Z,11.65
2023-10-01T15:39:41.733Z,10.13
2023-10-01T15:42:12.531Z,10.80
2023-10-01T15:44:54.947Z,9.75
2023-10-01T15:47:42.380Z,9.25
2023-10-01T15:50:32.776Z,12.00
2023-10-01T15:55:43.749Z,12.00
2023-10-01T15:58:19.768Z,12.20
2023-10-01T16:01:01.462Z,10.73
2023-10-01T16:03:42.935Z,10.00
2023-10-01T16:06:11.824Z,9.85
2023-10-01T16:08:48.321Z,10.10
2023-10-01T16:11:15.403Z,10.32
2023-10-01T16:13:54.409Z,10.73
2023-10-01T16:16:27.886Z,12.70
2023-10-01T16:18:57.445Z,12.07
2023-10-01T16:21:25.727Z,12.00
2023-10-01T16:23:57.458Z,11.82
2023-10-01T16:26:29.679Z,11.82
2023-10-01T16:29:01.196Z,13.75
2023-10-01T16:31:30.047Z,14.43
2023-10-01T16:34:01.497Z,13.13
2023-10-01T16:36:30.340Z,13.75
2023-10-01T16:39:11.679Z,13.45
2023-10-01T16:41:42.687Z,11.98
2023-10-01T16:44:10.801Z,11.50
2023-10-01T16:46:39.581Z,12.00
2023-10-01T16:49:17.476Z,12.43
2023-10-01T16:51:47.700Z,13.00
2023-10-01T16:54:16.837Z,11.68
2023-10-01T16:56:52.451Z,11.70
2023-10-01T16:59:32.938Z,11.75
2023-10-01T17:02:03.104Z,13.02
2023-10-01T17:04:32.610Z,12.45
2023-10-01T17:07:02.150Z,12.13
2023-10-01T17:09:38.374Z,12.65
2023-10-01T17:12:06.297Z,11.98
2023-10-01T17:14:38.050Z,11.52
2023-10-01T17:17:05.861Z,12.75
2023-10-01T17:19:42.198Z,13.75
2023-10-01T17:22:10.446Z,13.20
2023-10-01T17:24:47.961Z,12.23
2023-10-01T17:27:18.019Z,12.27
2023-10-01T17:29:45.366Z,12.80
2023-10-01T17:32:18.116Z,12.98
2023-10-01T17:34:48.562Z,10.85
2023-10-01T17:37:24.485Z,10.67
2023-10-01T17:39:57.787Z,10.88
2023-10-01T17:42:27.688Z,11.73
2023-10-01T17:45:03.885Z,12.80
2023-10-01T17:47:47.331Z,13.73
2023-10-01T17:50:34.756Z,13.52
2023-10-01T17:53:13.468Z,13.07
2023-10-01T17:55:55.581Z,13.50
2023-10-01T17:58:34.687Z,13.10
2023-10-01T18:01:03.617Z,13.77
2023-10-01T18:03:39.380Z,13.80
2023-10-01T18:06:23.666Z,13.93
2023-10-01T18:08:52.681Z,13.20
2023-10-01T18:11:27.230Z,13.50
2023-10-01T18:13:58.506Z,13.50
2023-10-01T18:16:28.773Z,13.15
2023-10-01T18:19:08.178Z,13.83
2023-10-01T18:21:37.629Z,14.55
2023-10-01T18:24:43.356Z,13.82
2023-10-01T18:27:34.338Z,13.07
2023-10-01T18:30:20.755Z,13.45
2023-10-01T18:32:48.075Z,13.80
2023-10-01T18:35:15.042Z,14.00
2023-10-01T18:37:42.958Z,15.35
2023-10-01T18:40:21.667Z,14.43
2023-10-01T18:42:55.860Z,13.45
2023-10-01T18:45:24.673Z,13.63
2023-10-01T18:47:55.997Z,13.82
2023-10-01T18:50:22.956Z,14.85
2023-10-01T18:52:49.742Z,15.20
2023-10-01T18:55:16.579Z,14.88
2023-10-01T18:57:44.022Z,15.25
2023-10-01T19:00:24.108Z,14.77
2023-10-01T19:02:58.150Z,14.63
2023-10-01T19:05:34.266Z,14.30
2023-10-01T19:08:01.748Z,15.63
2023-10-01T19:10:32.190Z,16.23
2023-10-01T19:13:02.072Z,16.17
2023-10-01T19:15:30.229Z,16.23
2023-10-01T19:17:57.589Z,17.35
2023-10-01T19:20:28.981Z,15.80
2023-10-01T19:22:59.675Z,15.77
2023-10-01T19:25:29.306Z,15.43
2023-10-01T19:27:57.556Z,15.73
2023-10-01T19:30:36.821Z,15.98
2023-10-01T19:33:25.934Z,16.42
2023-10-01T19:36:05.306Z,16.45
2023-10-01T19:38:32.901Z,15.90
2023-10-01T19:41:04.771Z,15.02
2023-10-01T19:43:40.929Z,16.42
2023-10-01T19:46:16.405Z,15.75
2023-10-01T19:48:50.746Z,16.80
2023-10-01T19:51:24.433Z,16.98
2023-10-01T19:54:08.995Z,16.80
2023-10-01T19:56:43.331Z,17.40
2023-10-01T19:59:16.056Z,17.77
2023-10-01T20:01:44.037Z,18.60
2023-10-01T20:04:19.546Z,20.30
2023-10-01T20:06:51.615Z,19.65
2023-10-01T20:09:29.579Z,18.23
2023-10-01T20:12:00.023Z,18.90
2023-10-01T20:14:39.068Z,18.65
2023-10-01T20:17:17.787Z,17.85
2023-10-01T20:19:48.010Z,19.55
2023-10-01T20:22:30.607Z,19.70
2023-10-01T20:25:02.696Z,18.42
2023-10-01T20:27:30.366Z,18.98
2023-10-01T20:29:57.732Z,18.38
2023-10-01T20:32:24.795Z,19.58
2023-10-01T20:34:52.831Z,18.38
2023-10-01T20:37:21.794Z,18.25
2023-10-01T20:39:48.982Z,17.08
2023-10-01T20:42:39.734Z,17.15
2023-10-01T20:45:37.398Z,16.53
2023-10-01T20:48:12.444Z,24.10
2023-10-01T20:50:46.539Z,22.90
2023-10-01T20:53:18.816Z,16.63
2023-10-01T20:55:46.069Z,17.13
2023-10-01T20:58:17.938Z,16.33
2023-10-01T21:00:52.039Z,17.33
2023-10-01T21:03:23.167Z,17.55
2023-10-01T21:05:56.805Z,17.00
2023-10-01T21:08:26.628Z,16.55
2023-10-01T21:10:53.425Z,17.23
2023-10-01T21:13:29.615Z,17.83
2023-10-01T21:16:05.881Z,18.38
2023-10-01T21:18:36.938Z,17.58
2023-10-01T21:21:04.367Z,18.40
2023-10-01T21:23:39.183Z,18.92
2023-10-01T21:26:23.647Z,17.73
2023-10-01T21:28:56.842Z,17.58
2023-10-01T21:31:23.712Z,18.65
2023-10-01T21:34:01.851Z,18.70
2023-10-01T21:36:29.446Z,18.58
2023-10-01T21:38:56.495Z,19.27
2023-10-01T21:41:23.252Z,19.77
2023-10-01T21:43:49.979Z,19.77
2023-10-01T21:46:26.867Z,18.13
2023-10-01T21:48:54.437Z,18.55
2023-10-01T21:51:21.387Z,17.95
2023-10-01T21:53:48.293Z,18.65
2023-10-01T21:56:18.896Z,18.20
2023-10-01T21:59:02.156Z,19.23
2023-10-01T22:01:50.095Z,19.63
2023-10-01T22:04:25.672Z,19.33
2023-10-01T22:06:53.108Z,17.17
2023-10-01T22:09:24.774Z,18.25
2023-10-01T22:11:55.710Z,18.95
2023-10-01T22:14:42.071Z,20.50
2023-10-01T22:17:08.739Z,18.88
2023-10-01T22:19:47.172Z,16.95
2023-10-01T22:22:15.264Z,16.80
2023-10-01T22:24:42.215Z,17.13
2023-10-01T22:27:13.474Z,16.65
2023-10-01T22:29:41.331Z,18.48
2023-10-01T22:32:08.697Z,17.17
2023-10-01T22:34:41.317Z,17.52
2023-10-01T22:37:13.544Z,16.92
2023-10-01T22:39:59.972Z,16.90
2023-10-01T22:42:37.641Z,17.15
2023-10-01T22:45:28.471Z,18.27
2023-10-01T22:48:02.339Z,17.50
2023-10-01T22:50:36.319Z,16.52
2023-10-01T22:53:03.292Z,18.85
2023-10-01T22:55:30.448Z,18.95
2023-10-01T22:57:57.356Z,15.73
2023-10-01T23:00:25.005Z,16.50
2023-10-01T23:02:54.361Z,17.00
2023-10-01T23:05:29.205Z,17.63
2023-10-01T23:08:09.557Z,18.27
2023-10-01T23:10:41.800Z,18.52
2023-10-01T23:13:10.725Z,17.58
2023-10-01T23:15:50.022Z,17.92
2023-10-01T23:18:21.359Z,19.00
2023-10-01T23:20:52.040Z,18.05
2023-10-01T23:23:30.030Z,19.00
2023-10-01T23:26:29.164Z,18.35
2023-10-01T23:29:25.055Z,19.13
2023-10-01T23:32:13.050Z,19.63
2023-10-01T23:34:48.297Z,19.85
2023-10-01T23:37:41.847Z,18.98
2023-10-01T23:40:11.886Z,20.23
2023-10-01T23:42:46.534Z,20.25
2023-10-01T23:45:18.054Z,19.58
2023-10-01T23:48:01.730Z,19.48
2023-10-01T23:50:31.833Z,18.85
2023-10-01T23:53:20.056Z,20.52
2023-10-01T23:56:00.019Z,21.33
2023-10-01T23:58:39.403Z,19.90
